Time;durP1;ratioP1;P1;durP2;ratioP2;P2;SDS_P1;SDS_P2;PMS_P1;PMS_P2;Temp;Humidity;BMP_temperature;BMP_pressure;BME280_temperature;BME280_humidity;BME280_pressure;Samples;Min_cycle;Max_cycle;Signal;HPM_P1;HPM_P2
2023/08/24 00:00:38;;;;;;;8.18;7.03;;;32.70;99.90;;;;;;5005836;23;21380;-55
2023/08/24 00:03:04;;;;;;;8.15;7.35;;;32.70;99.90;;;;;;4994367;28;20030;-56
2023/08/24 00:05:33;;;;;;;9.48;7.30;;;32.70;99.90;;;;;;4994302;28;20554;-56
2023/08/24 00:07:58;;;;;;;7.82;7.03;;;32.70;99.90;;;;;;4994183;28;20038;-56
2023/08/24 00:10:25;;;;;;;7.32;6.53;;;32.70;99.90;;;;;;4994514;28;20045;-56
2023/08/24 00:12:51;;;;;;;7.78;6.65;;;32.70;99.90;;;;;;4994357;28;20030;-57
2023/08/24 00:15:17;;;;;;;7.45;6.75;;;32.70;99.90;;;;;;4994126;28;20042;-56
2023/08/24 00:17:43;;;;;;;7.50;6.80;;;32.70;99.90;;;;;;4992750;28;20495;-56
2023/08/24 00:20:10;;;;;;;7.85;7.05;;;32.60;99.90;;;;;;4994047;28;20022;-57
2023/08/24 00:22:36;;;;;;;;;;;32.70;99.90;;;;;;4994420;28;20022;-56
2023/08/24 00:25:02;;;;;;;8.27;7.03;;;32.60;99.90;;;;;;4993913;28;19980;-56
2023/08/24 00:27:28;;;;;;;8.30;7.15;;;32.60;99.90;;;;;;4993872;28;20327;-57
2023/08/24 00:29:54;;;;;;;7.72;6.95;;;32.60;99.90;;;;;;4994051;28;20105;-57
2023/08/24 00:32:19;;;;;;;8.48;7.03;;;32.70;99.90;;;;;;4993582;28;20030;-56
2023/08/24 00:34:45;;;;;;;8.15;7.43;;;32.60;99.90;;;;;;4993765;28;20027;-56
2023/08/24 00:37:11;;;;;;;8.07;7.28;;;32.70;99.90;;;;;;4993657;28;20026;-56
2023/08/24 00:39:37;;;;;;;7.25;6.53;;;32.60;99.90;;;;;;4993628;28;20110;-57
2023/08/24 00:42:03;;;;;;;7.25;6.53;;;32.60;99.90;;;;;;4993616;28;20030;-57
2023/08/24 00:44:29;;;;;;;10.35;7.40;;;32.60;99.90;;;;;;4993581;28;20034;-56
2023/08/24 00:46:54;;;;;;;7.53;6.68;;;32.60;99.90;;;;;;4993642;28;20042;-56
2023/08/24 00:49:21;;;;;;;7.13;6.45;;;32.60;99.90;;;;;;4993384;28;20057;-56
2023/08/24 00:51:47;;;;;;;7.57;6.82;;;32.60;99.90;;;;;;4993366;28;20030;-56
2023/08/24 00:54:13;;;;;;;7.47;6.78;;;32.60;99.90;;;;;;4993517;28;20121;-56
2023/08/24 00:56:40;;;;;;;7.88;7.07;;;32.60;99.90;;;;;;4992569;28;20034;-56
2023/08/24 00:59:05;;;;;;;7.88;6.60;;;32.60;99.90;;;;;;4993529;28;20343;-56
2023/08/24 01:01:31;;;;;;;7.30;6.60;;;32.50;99.90;;;;;;5005251;23;20051;-55
2023/08/24 01:03:57;;;;;;;7.25;6.45;;;32.60;99.90;;;;;;4993484;28;20040;-55
2023/08/24 01:06:23;;;;;;;7.10;6.20;;;32.60;99.90;;;;;;4993329;28;20030;-55
2023/08/24 01:08:49;;;;;;;7.35;6.60;;;32.60;99.90;;;;;;4993130;28;20554;-55
2023/08/24 01:11:56;;;;;;;7.45;6.75;;;32.50;99.90;;;;;;4993169;28;20101;-55
2023/08/24 01:14:41;;;;;;;7.38;6.63;;;32.50;99.90;;;;;;4987352;28;20037;-53
2023/08/24 01:17:11;;;;;;;9.27;7.25;;;32.50;99.90;;;;;;4993076;28;20030;-54
2023/08/24 01:19:39;;;;;;;7.25;6.18;;;32.50;99.90;;;;;;4993182;28;20050;-55
2023/08/24 01:22:20;;;;;;;7.65;6.35;;;32.50;99.90;;;;;;4993096;28;20022;-55
2023/08/24 01:24:53;;;;;;;6.50;5.88;;;32.50;99.90;;;;;;4992958;28;20023;-55
2023/08/24 01:27:21;;;;;;;7.07;6.38;;;32.50;99.90;;;;;;4992971;28;20535;-54
2023/08/24 01:29:47;;;;;;;7.00;6.30;;;32.50;99.90;;;;;;4992989;28;20053;-54
2023/08/24 01:32:13;;;;;;;6.80;5.85;;;32.40;99.90;;;;;;4993118;28;20038;-55
2023/08/24 01:34:39;;;;;;;8.98;7.07;;;32.50;99.90;;;;;;4992971;28;20027;-55
2023/08/24 01:37:06;;;;;;;7.03;6.32;;;32.50;99.90;;;;;;4992987;28;20026;-54
2023/08/24 01:39:46;;;;;;;6.93;6.22;;;32.50;99.90;;;;;;4992851;28;20391;-54
2023/08/24 01:42:17;;;;;;;6.68;6.07;;;32.50;99.90;;;;;;4992931;28;20438;-54
2023/08/24 01:44:46;;;;;;;6.85;6.15;;;32.40;99.90;;;;;;4993098;28;20436;-53
2023/08/24 01:47:12;;;;;;;6.18;5.57;;;32.40;99.90;;;;;;4992698;28;20069;-53
2023/08/24 01:49:40;;;;;;;6.50;5.88;;;32.40;99.90;;;;;;4991579;28;20379;-53
2023/08/24 01:52:07;;;;;;;6.75;6.05;;;32.40;99.90;;;;;;4992645;28;20542;-55
2023/08/24 01:54:33;;;;;;;6.47;5.85;;;32.40;99.90;;;;;;4992743;28;20093;-55
2023/08/24 01:56:58;;;;;;;6.88;5.93;;;32.40;99.90;;;;;;4992931;28;20053;-55
2023/08/24 01:59:24;;;;;;;8.05;6.13;;;32.40;99.90;;;;;;4992700;28;20022;-55
2023/08/24 02:01:50;;;;;;;6.45;5.85;;;32.30;99.90;;;;;;4992986;28;20054;-54
2023/08/24 02:04:15;;;;;;;6.90;5.55;;;32.40;99.90;;;;;;4991231;28;20077;-55
2023/08/24 02:06:41;;;;;;;6.20;5.60;;;32.40;99.90;;;;;;4992527;28;20030;-55
2023/08/24 02:09:07;;;;;;;6.80;6.10;;;32.40;99.90;;;;;;4996190;28;20031;-56
2023/08/24 02:11:33;;;;;;;6.20;5.60;;;32.40;99.90;;;;;;4996558;28;20028;-54
2023/08/24 02:13:58;;;;;;;6.28;5.68;;;32.40;99.90;;;;;;4996722;28;20032;-54
2023/08/24 02:16:24;;;;;;;6.20;5.60;;;32.30;99.90;;;;;;4996396;28;20065;-54
2023/08/24 02:18:50;;;;;;;6.72;6.00;;;32.30;99.90;;;;;;4996356;28;20030;-54
2023/08/24 02:21:16;;;;;;;6.53;5.63;;;32.30;99.90;;;;;;4995261;28;20034;-54
2023/08/24 02:23:42;;;;;;;7.35;5.70;;;32.30;99.90;;;;;;4996448;28;20037;-54
2023/08/24 02:26:08;;;;;;;5.90;5.28;;;32.30;99.90;;;;;;4996403;28;20026;-55
2023/08/24 02:28:36;;;;;;;7.13;5.82;;;32.30;99.90;;;;;;4996217;28;20030;-55
2023/08/24 02:31:03;;;;;;;6.30;5.70;;;32.30;99.90;;;;;;4996328;28;20031;-54
2023/08/24 02:33:29;;;;;;;6.45;5.85;;;32.30;99.90;;;;;;4996402;28;20113;-55
2023/08/24 02:35:55;;;;;;;10.52;6.10;;;32.30;99.90;;;;;;4996198;28;20030;-54
2023/08/24 02:38:22;;;;;;;6.03;5.38;;;32.30;99.90;;;;;;4996057;28;20018;-55
2023/08/24 02:40:48;;;;;;;6.05;5.47;;;32.30;99.90;;;;;;4996065;28;20035;-55
2023/08/24 02:43:14;;;;;;;6.63;5.30;;;32.20;99.90;;;;;;4996075;28;20092;-55
2023/08/24 02:45:39;;;;;;;6.63;5.97;;;32.20;99.90;;;;;;4995829;28;20467;-53
2023/08/24 02:48:05;;;;;;;5.82;5.22;;;32.20;99.90;;;;;;4995833;28;20057;-54
2023/08/24 02:50:31;;;;;;;5.80;5.10;;;32.20;99.90;;;;;;4996171;28;20482;-54
2023/08/24 02:53:01;;;;;;;6.38;5.72;;;32.20;99.90;;;;;;4994609;28;20045;-55
2023/08/24 02:55:27;;;;;;;6.95;6.18;;;32.20;99.90;;;;;;4995777;28;20073;-55
2023/08/24 02:57:52;;;;;;;7.10;5.85;;;32.20;99.90;;;;;;4995673;28;20030;-54
2023/08/24 03:00:18;;;;;;;6.10;5.20;;;32.20;99.90;;;;;;5008875;23;20065;-46
2023/08/24 03:02:44;;;;;;;6.90;5.57;;;32.20;99.90;;;;;;4992617;28;20398;-46
2023/08/24 03:05:10;;;;;;;6.68;5.55;;;32.20;99.90;;;;;;4995634;28;20018;-47
2023/08/24 03:07:35;;;;;;;5.25;4.75;;;32.20;99.90;;;;;;4995539;28;20367;-47
2023/08/24 03:10:01;;;;;;;6.63;5.43;;;32.20;99.90;;;;;;4995702;28;20022;-47
2023/08/24 03:12:27;;;;;;;7.43;5.75;;;32.20;99.90;;;;;;4995449;28;20026;-46
2023/08/24 03:14:53;;;;;;;5.90;5.30;;;32.20;99.90;;;;;;4995381;28;20101;-47
2023/08/24 03:17:19;;;;;;;6.13;5.45;;;32.20;99.90;;;;;;4995338;28;20109;-47
2023/08/24 03:19:45;;;;;;;6.57;5.40;;;32.20;99.90;;;;;;4994196;28;20118;-46
2023/08/24 03:22:10;;;;;;;5.75;5.15;;;32.10;99.90;;;;;;4995365;28;20482;-46
2023/08/24 03:24:36;;;;;;;6.43;5.47;;;32.10;99.90;;;;;;4995312;28;20030;-47
2023/08/24 03:27:02;;;;;;;6.35;5.25;;;32.10;99.90;;;;;;4995269;28;20061;-47
2023/08/24 03:29:28;;;;;;;6.45;5.25;;;32.10;99.90;;;;;;4995067;28;20031;-47
2023/08/24 03:31:53;;;;;;;6.18;5.57;;;32.10;99.90;;;;;;4994918;28;20041;-47
2023/08/24 03:34:20;;;;;;;5.88;5.28;;;32.10;99.90;;;;;;4994985;28;20105;-48
2023/08/24 03:36:47;;;;;;;6.22;5.57;;;32.10;99.90;;;;;;4995063;28;20023;-48
2023/08/24 03:39:15;;;;;;;6.40;5.80;;;32.10;99.90;;;;;;4995003;28;20022;-47
2023/08/24 03:41:41;;;;;;;5.45;4.95;;;32.10;99.90;;;;;;4994961;28;20022;-47
2023/08/24 03:44:07;;;;;;;5.30;4.80;;;32.10;99.90;;;;;;4994931;28;20022;-47
2023/08/24 03:46:33;;;;;;;5.82;5.22;;;32.10;99.90;;;;;;4994836;28;20045;-48
2023/08/24 03:48:59;;;;;;;6.57;5.50;;;32.10;99.90;;;;;;4994716;28;20072;-48
2023/08/24 03:51:25;;;;;;;6.05;5.45;;;32.10;99.90;;;;;;4994858;28;20490;-47
2023/08/24 03:53:51;;;;;;;6.07;5.40;;;32.10;99.90;;;;;;4994658;28;20014;-48
2023/08/24 03:56:16;;;;;;;6.28;5.68;;;32.10;99.90;;;;;;4994673;28;20027;-47
2023/08/24 03:58:42;;;;;;;5.38;4.88;;;32.00;99.90;;;;;;4994680;28;20146;-47
2023/08/24 04:01:11;;;;;;;6.65;5.05;;;32.00;99.90;;;;;;4994736;28;20050;-49
2023/08/24 04:03:37;;;;;;;5.95;4.80;;;32.00;99.90;;;;;;4994848;28;20022;-47
2023/08/24 04:06:02;;;;;;;5.87;5.27;;;32.00;99.90;;;;;;4994476;28;20045;-47
2023/08/24 04:08:28;;;;;;;6.03;5.43;;;32.00;99.90;;;;;;4994329;28;20088;-47
2023/08/24 04:10:54;;;;;;;6.72;5.60;;;32.00;99.90;;;;;;4994340;28;20030;-47
2023/08/24 04:13:21;;;;;;;6.07;5.47;;;32.00;99.90;;;;;;4994268;28;20041;-47
2023/08/24 04:15:46;;;;;;;6.60;5.70;;;32.00;99.90;;;;;;4994274;28;20030;-47
2023/08/24 04:18:12;;;;;;;6.18;5.57;;;32.00;99.90;;;;;;4994110;28;20142;-47
2023/08/24 04:20:38;;;;;;;7.45;5.97;;;32.00;99.90;;;;;;4994416;28;20466;-47
2023/08/24 04:23:04;;;;;;;6.05;5.40;;;32.00;99.90;;;;;;4994300;28;20037;-47
2023/08/24 04:25:30;;;;;;;5.70;5.15;;;32.00;99.90;;;;;;4994024;28;20033;-47
2023/08/24 04:27:56;;;;;;;6.28;5.38;;;32.00;99.90;;;;;;4994006;28;20394;-47
2023/08/24 04:30:21;;;;;;;5.63;5.13;;;32.00;99.90;;;;;;4993619;28;20034;-48
2023/08/24 04:32:47;;;;;;;5.60;5.00;;;32.00;99.90;;;;;;4994031;28;20034;-47
2023/08/24 04:35:13;;;;;;;6.88;5.78;;;31.90;99.90;;;;;;4993900;28;20093;-47
2023/08/24 04:37:39;;;;;;;6.25;5.57;;;31.90;99.90;;;;;;4994097;28;20031;-47
2023/08/24 04:40:07;;;;;;;7.15;6.45;;;31.90;99.90;;;;;;4993992;28;20105;-47
2023/08/24 04:42:33;;;;;;;6.38;5.78;;;31.90;99.90;;;;;;4993623;28;20114;-48
2023/08/24 04:44:59;;;;;;;6.17;5.57;;;32.00;99.90;;;;;;4993584;28;20022;-48
2023/08/24 04:47:25;;;;;;;7.55;6.05;;;32.00;99.90;;;;;;4993612;28;20070;-47
2023/08/24 04:49:50;;;;;;;7.22;6.22;;;31.90;99.90;;;;;;4993661;28;20101;-47
2023/08/24 04:52:16;;;;;;;6.68;5.70;;;31.90;99.90;;;;;;4993531;28;20058;-48
2023/08/24 04:54:42;;;;;;;6.78;5.72;;;31.90;99.90;;;;;;4993570;28;20034;-48
2023/08/24 04:57:08;;;;;;;7.05;6.35;;;31.90;99.90;;;;;;4993780;28;20029;-48
2023/08/24 04:59:33;;;;;;;7.28;6.50;;;31.90;99.90;;;;;;4993456;28;20022;-48
2023/08/24 05:01:59;;;;;;;6.50;5.88;;;31.90;99.90;;;;;;4992047;28;20096;-47
2023/08/24 05:04:25;;;;;;;7.07;6.30;;;31.90;99.90;;;;;;4992118;28;20104;-48
2023/08/24 05:06:51;;;;;;;6.82;6.10;;;31.90;99.90;;;;;;4993188;28;20022;-48
2023/08/24 05:09:16;;;;;;;7.05;6.28;;;31.90;99.90;;;;;;4993408;28;20027;-48
2023/08/24 05:11:43;;;;;;;7.75;6.53;;;31.90;99.90;;;;;;4993383;28;20376;-47
2023/08/24 05:14:09;;;;;;;7.50;6.10;;;31.80;99.90;;;;;;4993364;28;20474;-47
2023/08/24 05:16:35;;;;;;;6.28;5.55;;;31.90;99.90;;;;;;4993179;28;20026;-48
2023/08/24 05:19:03;;;;;;;6.18;5.40;;;31.80;99.90;;;;;;4993167;28;20023;-48
2023/08/24 05:21:28;;;;;;;7.32;6.07;;;31.80;99.90;;;;;;4993067;28;20030;-47
2023/08/24 05:23:54;;;;;;;6.97;5.68;;;31.80;99.90;;;;;;4993158;28;20043;-47
2023/08/24 05:26:22;;;;;;;9.55;6.35;;;31.80;99.90;;;;;;4992896;28;20041;-47
2023/08/24 05:28:48;;;;;;;6.75;5.70;;;31.80;99.90;;;;;;4993093;28;20030;-47
2023/08/24 05:31:14;;;;;;;6.70;6.00;;;31.80;99.90;;;;;;4992949;28;20069;-47
2023/08/24 05:33:40;;;;;;;9.45;5.85;;;31.80;99.90;;;;;;4993054;28;20058;-47
2023/08/24 05:36:05;;;;;;;7.30;6.00;;;31.80;99.90;;;;;;4992933;28;20032;-47
2023/08/24 05:38:31;;;;;;;7.45;5.95;;;31.80;99.90;;;;;;4992794;28;20038;-48
2023/08/24 05:40:57;;;;;;;6.38;5.78;;;31.80;99.90;;;;;;4992840;28;20042;-47
2023/08/24 05:43:23;;;;;;;7.22;5.65;;;31.80;99.90;;;;;;4992055;28;20045;-48
2023/08/24 05:45:49;;;;;;;8.32;6.13;;;31.80;99.90;;;;;;4992815;28;20042;-47
2023/08/24 05:48:15;;;;;;;6.13;5.53;;;31.80;99.90;;;;;;4992812;28;20030;-48
2023/08/24 05:50:45;;;;;;;7.03;5.60;;;31.80;99.90;;;;;;4992985;28;20064;-47
2023/08/24 05:53:11;;;;;;;8.50;6.18;;;31.80;99.90;;;;;;4992938;28;20157;-47
2023/08/24 05:55:38;;;;;;;6.43;5.82;;;31.80;99.90;;;;;;4992723;28;20493;-47
2023/08/24 05:58:04;;;;;;;7.28;6.38;;;31.80;99.90;;;;;;4992763;28;20106;-47
2023/08/24 06:00:29;;;;;;;6.45;5.57;;;31.80;99.90;;;;;;4992595;28;20023;-47
2023/08/24 06:02:55;;;;;;;7.28;5.57;;;31.80;99.90;;;;;;4992414;28;20030;-47
2023/08/24 06:05:22;;;;;;;6.75;5.88;;;31.80;99.90;;;;;;4992320;28;20030;-48
2023/08/24 06:07:48;;;;;;;7.05;6.18;;;31.80;99.90;;;;;;4992329;28;20041;-47
2023/08/24 06:10:14;;;;;;;8.45;6.15;;;31.80;99.90;;;;;;4992553;28;20030;-47
2023/08/24 06:12:40;;;;;;;7.53;5.93;;;31.80;99.90;;;;;;4992590;28;20425;-47
2023/08/24 06:15:09;;;;;;;7.03;5.93;;;31.80;99.90;;;;;;4992505;28;20030;-47
2023/08/24 06:17:35;;;;;;;6.38;5.68;;;31.70;99.90;;;;;;4992348;28;20023;-47
2023/08/24 06:20:05;;;;;;;8.35;6.28;;;31.80;99.90;;;;;;4992447;28;20153;-47
2023/08/24 06:22:30;;;;;;;7.28;5.53;;;31.70;99.90;;;;;;4992351;28;20146;-47
2023/08/24 06:24:59;;;;;;;6.60;5.43;;;31.70;99.90;;;;;;4992216;28;20042;-47
2023/08/24 06:27:25;;;;;;;8.40;6.30;;;31.70;99.90;;;;;;4992259;28;20033;-47
2023/08/24 06:29:51;;;;;;;7.65;5.65;;;31.70;99.90;;;;;;4992279;28;20109;-47
2023/08/24 06:32:17;;;;;;;7.57;6.18;;;31.70;99.90;;;;;;4992188;28;20110;-47
2023/08/24 06:34:43;;;;;;;6.28;5.32;;;31.70;99.90;;;;;;4991057;28;20109;-47
2023/08/24 06:37:08;;;;;;;7.40;5.68;;;31.70;99.90;;;;;;4992042;28;20026;-47
2023/08/24 06:39:34;;;;;;;8.63;5.75;;;31.70;99.90;;;;;;4992067;28;20022;-47
2023/08/24 06:42:02;;;;;;;7.40;5.47;;;31.70;99.90;;;;;;4992096;28;20077;-47
2023/08/24 06:44:28;;;;;;;8.20;6.10;;;31.70;99.90;;;;;;4992055;28;20057;-47
2023/08/24 06:46:53;;;;;;;8.05;5.93;;;31.70;99.90;;;;;;4992014;28;20074;-47
2023/08/24 06:49:20;;;;;;;8.05;5.82;;;31.70;99.90;;;;;;4992028;28;20030;-47
2023/08/24 06:51:45;;;;;;;6.05;5.43;;;31.70;99.90;;;;;;4992192;28;20462;-47
2023/08/24 06:54:11;;;;;;;5.68;5.13;;;31.70;99.90;;;;;;4992377;28;20235;-47
2023/08/24 06:56:37;;;;;;;6.25;5.60;;;31.70;99.90;;;;;;4995479;28;20030;-47
2023/08/24 06:59:03;;;;;;;6.40;5.80;;;31.80;99.90;;;;;;4995437;28;20109;-47
2023/08/24 07:01:30;;;;;;;6.97;6.00;;;31.70;99.90;;;;;;4993915;28;20148;-47
2023/08/24 07:03:56;;;;;;;7.63;5.72;;;31.70;99.90;;;;;;4995443;28;20372;-47
2023/08/24 07:06:21;;;;;;;10.07;7.35;;;31.70;99.90;;;;;;4995111;28;20041;-47
2023/08/24 07:08:47;;;;;;;8.98;7.38;;;31.80;99.90;;;;;;4995107;28;20051;-47
2023/08/24 07:11:14;;;;;;;8.02;6.63;;;31.80;99.90;;;;;;4995334;28;20026;-48
2023/08/24 07:13:40;;;;;;;;;;;31.80;99.90;;;;;;4995584;28;20033;-47
2023/08/24 07:16:06;;;;;;;8.23;6.30;;;31.80;99.90;;;;;;4995156;28;20354;-47
2023/08/24 07:18:31;;;;;;;9.38;7.00;;;31.80;99.90;;;;;;4993879;28;20072;-47
2023/08/24 07:20:57;;;;;;;8.35;7.18;;;31.80;99.90;;;;;;4994988;28;20154;-47
2023/08/24 07:23:23;;;;;;;7.75;6.40;;;31.80;99.90;;;;;;4994975;28;20478;-48
2023/08/24 07:25:49;;;;;;;8.82;6.80;;;31.80;99.90;;;;;;4994999;28;20454;-47
2023/08/24 07:28:14;;;;;;;8.73;6.88;;;31.80;99.90;;;;;;4995120;28;20034;-47
2023/08/24 07:30:40;;;;;;;7.15;6.35;;;31.80;99.90;;;;;;4994946;28;20038;-47
2023/08/24 07:33:06;;;;;;;8.95;6.53;;;31.80;99.90;;;;;;4994574;28;20111;-46
2023/08/24 07:35:32;;;;;;;9.73;6.50;;;31.80;99.90;;;;;;4994645;28;20026;-47
2023/08/24 07:37:58;;;;;;;10.48;7.07;;;31.80;99.90;;;;;;4994761;28;20490;-47
2023/08/24 07:40:24;;;;;;;8.27;6.37;;;31.80;99.90;;;;;;4994710;28;20068;-47
2023/08/24 07:42:53;;;;;;;8.20;6.82;;;31.80;99.90;;;;;;4994381;28;20105;-47
2023/08/24 07:45:19;;;;;;;8.85;6.90;;;31.80;99.90;;;;;;4994544;28;20026;-47
2023/08/24 07:47:45;;;;;;;8.45;6.57;;;31.80;99.90;;;;;;4994764;28;20089;-47
2023/08/24 07:50:11;;;;;;;9.13;6.00;;;31.80;99.90;;;;;;4994341;28;20474;-47
2023/08/24 07:52:38;;;;;;;9.03;6.73;;;31.80;99.90;;;;;;4994380;28;20112;-47
2023/08/24 07:55:04;;;;;;;;;;;31.90;99.90;;;;;;4994587;28;20364;-47
2023/08/24 07:57:33;;;;;;;9.73;6.67;;;31.80;99.90;;;;;;4994354;28;20005;-47
2023/08/24 07:59:59;;;;;;;8.63;6.22;;;31.80;99.90;;;;;;4994200;28;20264;-47
2023/08/24 08:02:25;;;;;;;8.02;6.32;;;31.80;99.90;;;;;;4994129;28;20051;-48
2023/08/24 08:04:51;;;;;;;6.22;5.60;;;31.90;99.90;;;;;;4993803;28;20053;-47
2023/08/24 08:07:17;;;;;;;9.13;6.23;;;31.90;99.90;;;;;;4994161;28;20030;-47
2023/08/24 08:09:43;;;;;;;8.13;6.25;;;31.90;99.90;;;;;;4994095;28;20490;-47
2023/08/24 08:12:09;;;;;;;9.75;6.35;;;31.90;99.90;;;;;;4994091;28;20054;-48
2023/08/24 08:14:34;;;;;;;8.88;6.90;;;31.90;99.90;;;;;;4992767;28;20022;-47
2023/08/24 08:17:00;;;;;;;9.50;6.85;;;31.90;99.90;;;;;;4993966;28;20027;-47
2023/08/24 08:19:27;;;;;;;7.53;6.60;;;31.90;99.90;;;;;;4994009;28;20026;-47
2023/08/24 08:21:53;;;;;;;;;;;31.90;99.90;;;;;;4994292;28;20018;-47
2023/08/24 08:24:19;;;;;;;7.72;6.55;;;31.90;99.90;;;;;;4993998;28;19910;-48
2023/08/24 08:26:45;;;;;;;8.65;6.32;;;31.90;99.90;;;;;;4993655;28;20034;-48
2023/08/24 08:29:11;;;;;;;10.93;6.57;;;31.90;99.90;;;;;;4992595;28;20038;-47
2023/08/24 08:31:37;;;;;;;8.90;6.70;;;31.90;99.90;;;;;;4993612;28;20030;-47
2023/08/24 08:34:06;;;;;;;9.48;6.85;;;31.90;99.90;;;;;;4993556;28;20023;-47
2023/08/24 08:36:34;;;;;;;7.97;6.60;;;31.90;99.90;;;;;;4993594;28;20030;-48
2023/08/24 08:39:00;;;;;;;9.27;7.00;;;31.90;99.90;;;;;;4993424;28;20025;-47
2023/08/24 08:41:33;;;;;;;9.95;6.60;;;31.90;99.90;;;;;;4993469;28;20466;-48
2023/08/24 08:44:04;;;;;;;8.02;6.68;;;31.90;99.90;;;;;;4993475;28;20029;-48
2023/08/24 08:46:32;;;;;;;8.63;6.25;;;31.90;99.90;;;;;;4993159;28;20026;-48
2023/08/24 08:49:00;;;;;;;8.80;6.65;;;31.90;99.90;;;;;;4993304;28;20131;-48
2023/08/24 08:51:27;;;;;;;6.53;5.15;;;31.90;99.90;;;;;;4993322;28;20022;-48
2023/08/24 08:53:53;;;;;;;13.70;6.53;;;31.90;99.90;;;;;;4993510;28;20121;-48
2023/08/24 08:56:19;;;;;;;8.07;6.40;;;31.90;99.90;;;;;;4993482;28;20033;-48
2023/08/24 08:58:46;;;;;;;8.52;6.93;;;31.90;99.90;;;;;;4993331;28;20382;-49
2023/08/24 09:01:12;;;;;;;11.15;6.82;;;31.90;99.90;;;;;;4992944;28;20053;-48
2023/08/24 09:03:39;;;;;;;8.60;5.93;;;31.90;99.90;;;;;;4993090;28;20041;-49
2023/08/24 09:06:05;;;;;;;;;;;32.00;99.90;;;;;;4993651;28;20030;-47
2023/08/24 09:08:32;;;;;;;7.82;6.45;;;32.00;99.90;;;;;;4992861;28;20361;-46
2023/08/24 09:11:00;;;;;;;10.48;6.55;;;32.00;99.90;;;;;;4992994;28;20022;-46
2023/08/24 09:13:26;;;;;;;11.95;6.63;;;32.00;99.90;;;;;;4993113;28;20105;-47
2023/08/24 09:15:55;;;;;;;8.55;6.50;;;32.00;99.90;;;;;;4993145;28;20202;-47
2023/08/24 09:18:22;;;;;;;9.23;6.97;;;32.00;99.90;;;;;;4992401;28;20023;-47
2023/08/24 09:20:48;;;;;;;9.13;6.23;;;32.00;99.90;;;;;;4992761;28;20026;-47
2023/08/24 09:23:20;;;;;;;9.70;7.18;;;32.00;99.90;;;;;;4992802;28;20027;-47
2023/08/24 09:25:50;;;;;;;8.77;6.95;;;32.00;99.90;;;;;;4992798;28;20101;-46
2023/08/24 09:28:24;;;;;;;6.75;6.05;;;32.00;99.90;;;;;;4992662;28;20418;-48
2023/08/24 09:30:54;;;;;;;8.55;7.10;;;32.00;99.90;;;;;;4992723;28;20022;-47
2023/08/24 09:33:21;;;;;;;7.60;6.80;;;32.00;99.90;;;;;;4992867;28;20109;-47
2023/08/24 09:35:53;;;;;;;7.78;6.38;;;32.00;99.90;;;;;;4992705;28;20026;-47
2023/08/24 09:38:21;;;;;;;7.05;6.35;;;32.00;99.90;;;;;;4992935;28;20386;-46
2023/08/24 09:40:50;;;;;;;9.55;6.57;;;32.00;99.90;;;;;;4992608;28;20041;-47
2023/08/24 09:43:17;;;;;;;8.57;6.50;;;32.00;99.90;;;;;;4992819;28;20015;-46
2023/08/24 09:45:53;;;;;;;8.43;6.80;;;32.00;99.90;;;;;;4992603;28;20391;-47
2023/08/24 09:48:20;;;;;;;10.98;6.93;;;32.10;99.90;;;;;;4992363;28;20038;-47
2023/08/24 09:50:47;;;;;;;7.75;6.90;;;32.10;99.90;;;;;;4992580;28;20327;-47
2023/08/24 09:53:21;;;;;;;8.65;7.13;;;32.10;99.90;;;;;;4992568;28;20027;-47
2023/08/24 09:55:57;;;;;;;9.18;6.80;;;32.10;99.90;;;;;;4992445;28;20056;-47
2023/08/24 09:58:24;;;;;;;8.30;6.97;;;32.10;99.90;;;;;;4992600;28;20382;-47
2023/08/24 10:00:50;;;;;;;9.30;6.97;;;32.10;99.90;;;;;;4992353;28;20073;-47
2023/08/24 10:03:22;;;;;;;8.70;6.97;;;32.10;99.90;;;;;;4992286;28;20050;-48
2023/08/24 10:05:58;;;;;;;9.88;6.95;;;32.10;99.90;;;;;;4992251;28;20022;-48
2023/08/24 10:08:43;;;;;;;7.50;6.63;;;32.10;99.90;;;;;;4992325;28;20393;-48
2023/08/24 10:11:10;;;;;;;8.35;6.68;;;32.10;99.90;;;;;;4992441;28;20101;-48
2023/08/24 10:13:39;;;;;;;;;;;32.10;99.90;;;;;;4992736;28;20077;-48
2023/08/24 10:16:05;;;;;;;8.50;7.60;;;32.10;99.90;;;;;;4992158;28;19912;-48
2023/08/24 10:18:31;;;;;;;8.02;6.65;;;32.20;99.90;;;;;;4992188;28;20022;-47
2023/08/24 10:20:58;;;;;;;8.27;6.88;;;32.20;99.90;;;;;;4992396;28;20134;-47
2023/08/24 10:23:27;;;;;;;7.53;6.68;;;32.20;99.90;;;;;;4992329;28;20018;-47
2023/08/24 10:25:55;;;;;;;8.02;7.18;;;32.20;99.90;;;;;;4992259;28;20030;-47
2023/08/24 10:28:23;;;;;;;8.55;7.07;;;32.20;99.90;;;;;;4992654;28;20161;-48
2023/08/24 10:30:50;;;;;;;8.90;7.05;;;32.20;99.90;;;;;;4995813;28;20030;-47
2023/08/24 10:33:17;;;;;;;8.27;7.35;;;32.20;99.90;;;;;;4995882;28;20378;-48
2023/08/24 10:35:45;;;;;;;8.30;6.50;;;32.20;99.90;;;;;;4995789;28;20018;-48
2023/08/24 10:38:26;;;;;;;7.57;6.40;;;32.20;99.90;;;;;;4995515;28;20049;-47
2023/08/24 10:40:52;;;;;;;8.70;7.43;;;32.30;99.90;;;;;;4994368;28;20068;-47
2023/08/24 10:43:18;;;;;;;8.10;7.18;;;32.30;99.90;;;;;;4995637;28;20046;-47
2023/08/24 10:45:56;;;;;;;8.35;6.78;;;32.30;99.90;;;;;;4995612;28;20116;-47
2023/08/24 10:48:27;;;;;;;8.15;6.97;;;32.30;99.90;;;;;;4995403;28;20042;-47
2023/08/24 10:51:19;;;;;;;7.30;6.47;;;32.40;99.90;;;;;;4995888;28;20359;-47
2023/08/24 10:53:46;;;;;;;8.15;7.38;;;32.40;99.90;;;;;;4995553;28;20053;-47
2023/08/24 10:56:13;;;;;;;7.75;6.97;;;32.40;99.90;;;;;;4995345;28;20102;-46
2023/08/24 10:58:39;;;;;;;8.98;7.40;;;32.40;99.90;;;;;;4995470;28;20478;-47
2023/08/24 11:01:05;;;;;;;8.70;6.90;;;32.40;99.90;;;;;;4995074;28;20050;-47
2023/08/24 11:03:34;;;;;;;9.27;7.78;;;32.40;99.90;;;;;;4995375;28;20019;-46
2023/08/24 11:06:00;;;;;;;8.32;7.40;;;32.40;99.90;;;;;;4995359;28;20438;-47
2023/08/24 11:08:45;;;;;;;8.38;7.57;;;32.40;99.90;;;;;;4995364;28;20045;-47
2023/08/24 11:11:27;;;;;;;7.93;7.13;;;32.40;99.90;;;;;;4993788;28;20474;-46
2023/08/24 11:14:19;;;;;;;8.05;7.22;;;32.40;99.90;;;;;;4995363;28;20033;-47
2023/08/24 11:16:47;;;;;;;7.47;6.43;;;32.50;99.90;;;;;;4995043;28;20022;-47
2023/08/24 11:19:13;;;;;;;7.75;6.95;;;32.50;99.90;;;;;;4995043;28;20026;-47
2023/08/24 11:21:40;;;;;;;7.83;7.03;;;32.50;99.90;;;;;;4995152;28;20556;-48
2023/08/24 11:24:07;;;;;;;8.52;7.38;;;32.50;99.90;;;;;;4993926;28;20022;-47
2023/08/24 11:26:34;;;;;;;10.32;7.22;;;32.50;99.90;;;;;;4994999;28;20022;-47
2023/08/24 11:29:04;;;;;;;8.38;6.65;;;32.50;99.90;;;;;;4993469;28;20032;-47
2023/08/24 11:31:30;;;;;;;9.95;7.32;;;32.50;99.90;;;;;;4994728;28;20151;-48
2023/08/24 11:33:56;;;;;;;8.00;7.20;;;32.60;99.90;;;;;;4995002;28;20113;-47
2023/08/24 11:36:23;;;;;;;9.40;7.82;;;32.60;99.90;;;;;;4994753;28;20026;-48
2023/08/24 11:38:52;;;;;;;9.70;7.18;;;32.60;99.90;;;;;;4994598;28;20026;-47
2023/08/24 11:41:19;;;;;;;7.18;6.47;;;32.60;99.90;;;;;;4993706;28;20029;-47
2023/08/24 11:43:47;;;;;;;8.90;7.18;;;32.60;99.90;;;;;;4994591;28;20645;-47
2023/08/24 11:46:15;;;;;;;7.93;6.43;;;32.60;99.90;;;;;;4994468;28;20427;-47
2023/08/24 11:48:41;;;;;;;8.77;6.68;;;32.60;99.90;;;;;;4994499;28;20030;-47
2023/08/24 11:51:14;;;;;;;7.68;6.88;;;32.60;99.90;;;;;;4994614;28;20026;-47
2023/08/24 11:53:44;;;;;;;8.20;7.40;;;32.60;99.90;;;;;;4994414;28;20026;-47
2023/08/24 11:56:12;;;;;;;9.38;7.13;;;32.70;99.90;;;;;;4992756;28;20026;-47
2023/08/24 11:58:39;;;;;;;8.93;6.97;;;32.70;99.90;;;;;;4994216;28;20022;-47
2023/08/24 12:01:06;;;;;;;8.38;6.93;;;32.60;99.90;;;;;;4994182;28;20034;-47
2023/08/24 12:03:32;;;;;;;7.32;6.63;;;32.70;99.90;;;;;;4994167;28;20072;-47
2023/08/24 12:06:04;;;;;;;7.68;6.97;;;32.70;99.90;;;;;;4994628;28;20026;-47
2023/08/24 12:08:30;;;;;;;7.63;6.47;;;32.70;99.90;;;;;;4994048;28;20030;-46
2023/08/24 12:10:56;;;;;;;9.07;7.15;;;32.70;99.90;;;;;;4993973;28;20050;-47
2023/08/24 12:13:22;;;;;;;7.63;6.90;;;32.70;99.90;;;;;;4994074;28;20509;-47
2023/08/24 12:15:50;;;;;;;8.77;6.30;;;32.70;99.90;;;;;;4993919;28;20364;-47
2023/08/24 12:18:16;;;;;;;8.85;7.10;;;32.70;99.90;;;;;;4993857;28;20080;-47
2023/08/24 12:20:42;;;;;;;7.60;6.57;;;32.80;99.90;;;;;;4993907;28;20429;-48
2023/08/24 12:23:09;;;;;;;6.97;6.30;;;32.70;99.90;;;;;;4993829;28;20076;-48
2023/08/24 12:25:42;;;;;;;9.18;6.43;;;32.80;99.90;;;;;;4993749;28;20378;-48
2023/08/24 12:28:13;;;;;;;7.30;6.60;;;32.80;99.90;;;;;;4993666;28;20034;-48
2023/08/24 12:30:54;;;;;;;9.57;6.32;;;32.80;99.90;;;;;;4993740;28;20015;-48
2023/08/24 12:33:27;;;;;;;7.78;6.25;;;32.80;99.90;;;;;;4993424;28;20026;-48
2023/08/24 12:35:55;;;;;;;9.43;6.72;;;32.80;99.90;;;;;;4993575;28;20027;-48
2023/08/24 12:38:21;;;;;;;9.32;6.30;;;32.80;99.90;;;;;;4993616;28;20101;-48
2023/08/24 12:40:47;;;;;;;6.45;5.78;;;32.90;99.90;;;;;;4993718;28;20188;-48
2023/08/24 12:43:13;;;;;;;7.28;6.00;;;32.80;99.90;;;;;;4993398;28;20391;-48
2023/08/24 12:45:42;;;;;;;7.43;6.63;;;32.80;99.90;;;;;;4993153;28;20058;-48
2023/08/24 12:48:09;;;;;;;8.43;6.53;;;32.80;99.90;;;;;;4993188;28;20475;-48